Eveleth, MN

2:28 AM CDT on July 26, 2017 (GMT -0500)
Eveleth-Virginia Municipal

Weather History for KEVM - March, 2013

Change the Weather History Date:

Tuesday, March 19, 2013

  Actual Average Record
Temperature  
Mean Temperature 14 °F -  
Max Temperature 20 °F 35 °F 77 °F (2012)
Min Temperature 8 °F 14 °F -3 °F (1993)
Degree Days  
Heating Degree Days 51    
Moisture  
Dew Point 4 °F    
Average Humidity 65    
Maximum Humidity 81    
Minimum Humidity 48    
Precipitation  
Precipitation 0.00 in - - ()
Sea Level Pressure  
Sea Level Pressure 29.82 in    
Wind  
Wind Speed 18 mph (WNW)    
Max Wind Speed 23 mph    
Max Gust Speed 33 mph    
Visibility 8 miles    
Events Snow    
Averages and records for this station are not official NWS values.
T = Trace of Precipitation, MM = Missing Value Source: NWS Daily Summary

Daily Weather History Graph

Daily Weather History Graph

Search for Another Location

Airport or City:

Trip Planner

Search our weather history database for the weather conditions in past years. The results will help you decide how hot, cold, wet, or windy it might be!

Date:

Astronomy

Mar. 19, 2013 Rise Set
Actual Time 7:14 AM CDT 7:21 PM CDT
Civil Twilight 6:43 AM CDT 7:52 PM CDT
Nautical Twilight 6:07 AM CDT 8:28 PM CDT
Astronomical Twilight 5:30 AM CDT 9:05 PM CDT
Moon 11:42 AM CDT (3/19) 2:31 AM CDT (3/19)
Length of Visible Light 13h 08m
Length of Day
12h 07m
Waxing Crescent, 50% of the Moon is Illuminated
Mar 19
Waxing Crescent
Mar 19
First Quarter
Mar 27
Full
Apr 2
Last Quarter
Apr 10
New

Hourly Weather History & Observations

Time (CDT) Temp. Windchill Dew Point Humidity Pressure Visibility Wind Dir Wind Speed Gust Speed Precip Events Conditions
12:09 AM 17.4 °F 1.5 °F 12.2 °F 80% 29.58 in 4.0 mi WNW 18.4 mph 27.6 mph N/A Snow Light Snow
12:29 AM 17.4 °F 1.5 °F 12.2 °F 80% 29.58 in 5.0 mi WNW 18.4 mph 25.3 mph N/A Snow Light Snow
12:49 AM 16.5 °F 0.3 °F 11.5 °F 81% 29.59 in 3.0 mi WNW 18.4 mph 23.0 mph N/A Snow Light Snow
1:09 AM 14.9 °F -1.8 °F 9.5 °F 79% 29.59 in 3.0 mi WNW 18.4 mph 25.3 mph N/A Snow Light Snow
1:29 AM 14.9 °F -1.3 °F 9.5 °F 79% 29.60 in 2.5 mi WNW 17.3 mph 26.5 mph N/A Snow Light Snow
1:50 AM 14.9 °F -2.3 °F 9.3 °F 79% 29.61 in 3.0 mi WNW 19.6 mph 27.6 mph N/A Snow Light Snow
2:09 AM 13.6 °F -3.5 °F 8.4 °F 80% 29.62 in 2.5 mi WNW 18.4 mph 25.3 mph N/A Snow Light Snow
2:29 AM 12.9 °F -3.9 °F 7.3 °F 78% 29.63 in 4.0 mi WNW 17.3 mph 26.5 mph N/A Snow Light Snow
2:50 AM 12.2 °F -4.8 °F 6.4 °F 78% 29.63 in 5.0 mi WNW 17.3 mph 27.6 mph N/A Snow Light Snow
3:09 AM 12.2 °F -5.8 °F 6.3 °F 77% 29.63 in 4.0 mi WNW 19.6 mph 27.6 mph N/A Snow Light Snow
3:29 AM 12.2 °F -5.3 °F 6.4 °F 78% 29.64 in 7.0 mi WNW 18.4 mph 25.3 mph N/A Snow Light Snow
3:50 AM 12.2 °F -5.3 °F 6.4 °F 78% 29.65 in 7.0 mi WNW 18.4 mph 26.5 mph N/A Snow Light Snow
4:09 AM 12.2 °F -4.3 °F 6.4 °F 78% 29.66 in 10.0 mi WNW 16.1 mph 23.0 mph N/A Snow Light Snow
4:29 AM 12.2 °F -4.3 °F 6.4 °F 78% 29.66 in 7.0 mi WNW 16.1 mph 29.9 mph N/A Snow Light Snow
4:50 AM 11.1 °F -6.2 °F 5.4 °F 78% 29.67 in 7.0 mi WNW 17.3 mph 25.3 mph N/A Snow Light Snow
5:09 AM 9.5 °F -7.8 °F 3.9 °F 78% 29.68 in 10.0 mi WNW 16.1 mph 25.3 mph N/A Snow Light Snow
5:29 AM 9.5 °F -7.2 °F 3.9 °F 78% 29.69 in 10.0 mi WNW 15.0 mph 23.0 mph N/A   Clear
5:50 AM 9.5 °F -5.9 °F 3.9 °F 78% 29.70 in 10.0 mi WNW 12.7 mph 21.9 mph N/A   Scattered Clouds
6:09 AM 9.5 °F -7.2 °F 3.9 °F 78% 29.71 in 7.0 mi WNW 15.0 mph 20.7 mph N/A Snow Light Snow
6:29 AM 9.5 °F -7.2 °F 4.1 °F 79% 29.72 in 7.0 mi WNW 15.0 mph 20.7 mph N/A Snow Light Snow
6:50 AM 9.5 °F -8.3 °F 4.1 °F 79% 29.73 in 7.0 mi WNW 17.3 mph 25.3 mph N/A   Overcast
7:09 AM 9.5 °F -8.8 °F 3.9 °F 78% 29.74 in 5.0 mi WNW 18.4 mph 26.5 mph N/A Snow Light Snow
7:29 AM 9.5 °F -9.3 °F 4.1 °F 79% 29.74 in 5.0 mi WNW 19.6 mph 29.9 mph N/A   Haze
7:50 AM 9.5 °F -8.8 °F 3.9 °F 78% 29.75 in 4.0 mi WNW 18.4 mph 25.3 mph N/A   Haze
8:09 AM 9.3 °F -9.6 °F 3.6 °F 77% 29.76 in 5.0 mi WNW 19.6 mph 27.6 mph N/A   Haze
8:29 AM 9.5 °F -10.3 °F 3.6 °F 77% 29.77 in 4.0 mi WNW 21.9 mph 27.6 mph N/A   Haze
8:49 AM 8.4 °F -9.2 °F 2.3 °F 76% 29.79 in 3.0 mi NW 16.1 mph 28.8 mph N/A   Haze
9:09 AM 8.4 °F -11.2 °F 2.1 °F 76% 29.79 in 4.0 mi NW 20.7 mph 27.6 mph N/A   Haze
9:30 AM 9.5 °F -10.3 °F 2.8 °F 74% 29.80 in 5.0 mi WNW 21.9 mph 28.8 mph N/A   Haze
9:49 AM 9.5 °F -9.8 °F 2.3 °F 73% 29.80 in 7.0 mi WNW 20.7 mph 25.3 mph N/A   Scattered Clouds
10:09 AM 9.5 °F -7.2 °F 1.9 °F 71% 29.80 in 5.0 mi WNW 15.0 mph 27.6 mph N/A   Haze
10:30 AM 12.2 °F -4.8 °F 3.7 °F 69% 29.81 in 10.0 mi WNW 17.3 mph 23.0 mph N/A   Clear
10:49 AM 12.2 °F -6.3 °F 3.2 °F 67% 29.82 in 7.0 mi WNW 20.7 mph 27.6 mph N/A   Clear
11:09 AM 12.2 °F -6.3 °F 2.8 °F 66% 29.83 in 10.0 mi WNW 20.7 mph 26.5 mph N/A   Clear
11:30 AM 14.9 °F -0.3 °F 4.8 °F 64% 29.83 in 10.0 mi WNW 15.0 mph 23.0 mph N/A   Clear
11:49 AM 16.3 °F 1.6 °F 4.8 °F 61% 29.83 in 10.0 mi WNW 15.0 mph 24.2 mph N/A   Clear
12:09 PM 17.4 °F 1.5 °F 5.0 °F 58% 29.83 in 7.0 mi WNW 18.4 mph 29.9 mph N/A   Clear
12:30 PM 17.4 °F 0.2 °F 4.1 °F 56% 29.84 in 7.0 mi WNW 21.9 mph 29.9 mph N/A   Clear
12:49 PM 17.6 °F 0.1 °F 4.1 °F 56% 29.84 in 5.0 mi WNW 23.0 mph 31.1 mph N/A   Haze
1:09 PM 19.6 °F 3.5 °F 5.7 °F 55% 29.85 in 7.0 mi WNW 20.7 mph 31.1 mph N/A   Scattered Clouds
1:30 PM 19.9 °F 4.3 °F 5.0 °F 52% 29.86 in 5.0 mi NW 19.6 mph 33.4 mph N/A   Haze
1:49 PM 19.9 °F 4.3 °F 4.8 °F 52% 29.86 in 7.0 mi WNW 19.6 mph 29.9 mph N/A   Clear
2:09 PM 19.9 °F 5.2 °F 4.1 °F 50% 29.86 in 10.0 mi NW 17.3 mph 31.1 mph N/A   Clear
2:30 PM 20.1 °F 6.4 °F 3.6 °F 49% 29.86 in 10.0 mi NW 15.0 mph 25.3 mph N/A   Clear
2:49 PM 20.1 °F 5.0 °F 5.2 °F 52% 29.87 in 7.0 mi WNW 18.4 mph 26.5 mph N/A   Clear
3:09 PM 20.1 °F 5.4 °F 5.0 °F 52% 29.87 in 10.0 mi WNW 17.3 mph 27.6 mph N/A   Scattered Clouds
3:30 PM 19.9 °F 4.3 °F 4.5 °F 51% 29.88 in 10.0 mi WNW 19.6 mph 28.8 mph N/A   Scattered Clouds
3:49 PM 20.3 °F 4.0 °F 4.6 °F 51% 29.89 in 10.0 mi WNW 21.9 mph 26.5 mph N/A   Clear
4:09 PM 20.3 °F 6.6 °F 4.3 °F 50% 29.90 in 10.0 mi WNW 15.0 mph 21.9 mph N/A   Clear
4:30 PM 20.3 °F 5.7 °F 3.6 °F 48% 29.90 in 7.0 mi NW 17.3 mph 33.4 mph N/A   Clear
4:49 PM 20.1 °F 4.2 °F 3.7 °F 49% 29.91 in 7.0 mi WNW 20.7 mph 32.2 mph N/A   Clear
5:09 PM 20.3 °F 5.2 °F 3.6 °F 48% 29.92 in 10.0 mi NW 18.4 mph 28.8 mph N/A   Clear
5:30 PM 20.1 °F 4.6 °F 3.0 °F 48% 29.93 in 10.0 mi NW 19.6 mph 26.5 mph N/A   Clear
5:49 PM 19.9 °F 3.9 °F 3.0 °F 48% 29.93 in 10.0 mi NW 20.7 mph 27.6 mph N/A   Clear
6:10 PM 19.9 °F 5.2 °F 3.2 °F 48% 29.94 in 10.0 mi NW 17.3 mph 27.6 mph N/A   Clear
6:29 PM 19.9 °F 4.8 °F 3.9 °F 50% 29.95 in 10.0 mi WNW 18.4 mph 25.3 mph N/A   Clear
6:49 PM 18.5 °F 2.4 °F 2.8 °F 51% 29.95 in 10.0 mi WNW 19.6 mph 25.3 mph N/A   Clear
7:09 PM 17.4 °F 2.4 °F 1.8 °F 50% 29.96 in 10.0 mi WNW 16.1 mph 19.6 mph N/A   Clear
7:29 PM 17.4 °F 2.9 °F 2.5 °F 52% 29.96 in 10.0 mi NW 15.0 mph 26.5 mph N/A   Clear
7:50 PM 17.4 °F 2.4 °F 3.0 °F 53% 29.97 in 10.0 mi WNW 16.1 mph 27.6 mph N/A   Clear
8:09 PM 17.1 °F 0.1 °F 2.5 °F 53% 29.98 in 10.0 mi WNW 20.7 mph 26.5 mph N/A   Clear
8:29 PM 14.9 °F -0.8 °F 0.9 °F 54% 29.99 in 10.0 mi NW 16.1 mph 26.5 mph N/A   Scattered Clouds
8:50 PM 14.9 °F -0.3 °F 1.9 °F 57% 30.00 in 10.0 mi NW 15.0 mph 29.9 mph N/A   Overcast
9:09 PM 14.0 °F -2.0 °F 0.7 °F 56% 30.00 in 10.0 mi NW 16.1 mph 31.1 mph N/A   Overcast
9:29 PM 12.7 °F -3.6 °F -0.0 °F 57% 30.00 in 10.0 mi WNW 16.1 mph 25.3 mph N/A   Mostly Cloudy
9:50 PM 12.2 °F -3.1 °F -0.4 °F 57% 30.00 in 10.0 mi WNW 13.8 mph 23.0 mph N/A   Mostly Cloudy
10:09 PM 12.2 °F -3.1 °F -0.2 °F 58% 30.00 in 10.0 mi WNW 13.8 mph 23.0 mph N/A   Scattered Clouds
10:29 PM 12.2 °F -3.7 °F 0.3 °F 59% 30.00 in 10.0 mi WNW 15.0 mph 23.0 mph N/A   Clear
10:50 PM 12.2 °F -1.8 °F 0.3 °F 59% 30.00 in 10.0 mi WNW 11.5 mph 19.6 mph N/A   Clear
11:09 PM 11.5 °F -1.9 °F -0.4 °F 59% 30.00 in 10.0 mi WNW 10.4 mph 16.1 mph N/A   Clear
11:29 PM 9.5 °F -4.4 °F -2.2 °F 59% 30.00 in 10.0 mi NW 10.4 mph 18.4 mph N/A   Clear
11:50 PM 9.5 °F -7.2 °F -1.3 °F 62% 30.00 in 10.0 mi WNW 15.0 mph - N/A   Clear